sensor_id;sensor_type;location;lat;lon;timestamp;pressure;altitude;pressure_sealevel;temperature;humidity
41596;BME280;27283;52.504;13.358;2022-08-21T00:02:24;101181.69;;;19.70;98.29
41596;BME280;27283;52.504;13.358;2022-08-21T00:04:57;101178.78;;;19.58;98.66
41596;BME280;27283;52.504;13.358;2022-08-21T00:07:29;101186.84;;;19.26;100.00
41596;BME280;27283;52.504;13.358;2022-08-21T00:10:05;101180.56;;;19.25;100.00
41596;BME280;27283;52.504;13.358;2022-08-21T00:12:38;101177.19;;;19.30;100.00
41596;BME280;27283;52.504;13.358;2022-08-21T00:15:11;101182.69;;;19.17;100.00
41596;BME280;27283;52.504;13.358;2022-08-21T00:17:44;101183.88;;;19.41;100.00
41596;BME280;27283;52.504;13.358;2022-08-21T00:20:17;101187.03;;;19.38;100.00
41596;BME280;27283;52.504;13.358;2022-08-21T00:22:52;101172.75;;;19.49;99.28
41596;BME280;27283;52.504;13.358;2022-08-21T00:25:27;101166.47;;;19.42;99.31
41596;BME280;27283;52.504;13.358;2022-08-21T00:28:02;101166.56;;;19.02;100.00
41596;BME280;27283;52.504;13.358;2022-08-21T00:30:35;101172.19;;;19.13;100.00
41596;BME280;27283;52.504;13.358;2022-08-21T00:33:08;101181.03;;;18.95;100.00
41596;BME280;27283;52.504;13.358;2022-08-21T00:35:41;101182.50;;;18.98;100.00
41596;BME280;27283;52.504;13.358;2022-08-21T00:38:14;101179.34;;;18.94;100.00
41596;BME280;27283;52.504;13.358;2022-08-21T00:40:53;101180.59;;;19.05;100.00
41596;BME280;27283;52.504;13.358;2022-08-21T00:43:32;101177.88;;;18.99;100.00
41596;BME280;27283;52.504;13.358;2022-08-21T00:46:06;101181.25;;;18.87;100.00
41596;BME280;27283;52.504;13.358;2022-08-21T00:48:38;101182.91;;;18.82;100.00
41596;BME280;27283;52.504;13.358;2022-08-21T00:51:13;101182.06;;;18.74;100.00
41596;BME280;27283;52.504;13.358;2022-08-21T00:53:55;101183.53;;;19.10;100.00
41596;BME280;27283;52.504;13.358;2022-08-21T00:56:34;101180.81;;;19.10;100.00
41596;BME280;27283;52.504;13.358;2022-08-21T00:59:10;101178.50;;;19.01;100.00
41596;BME280;27283;52.504;13.358;2022-08-21T01:01:42;101176.59;;;18.74;100.00
41596;BME280;27283;52.504;13.358;2022-08-21T01:04:15;101179.75;;;18.85;100.00
41596;BME280;27283;52.504;13.358;2022-08-21T01:06:47;101170.50;;;18.52;100.00
41596;BME280;27283;52.504;13.358;2022-08-21T01:09:23;101178.50;;;18.60;100.00
41596;BME280;27283;52.504;13.358;2022-08-21T01:11:58;101172.84;;;18.62;100.00
41596;BME280;27283;52.504;13.358;2022-08-21T01:14:31;101166.34;;;18.50;100.00
41596;BME280;27283;52.504;13.358;2022-08-21T01:17:04;101178.47;;;18.47;100.00
41596;BME280;27283;52.504;13.358;2022-08-21T01:19:36;101174.31;;;18.51;100.00
41596;BME280;27283;52.504;13.358;2022-08-21T01:22:11;101187.06;;;18.51;100.00
41596;BME280;27283;52.504;13.358;2022-08-21T01:24:43;101188.31;;;18.41;100.00
41596;BME280;27283;52.504;13.358;2022-08-21T01:27:15;101175.53;;;18.55;100.00
41596;BME280;27283;52.504;13.358;2022-08-21T01:29:53;101177.00;;;18.45;100.00
41596;BME280;27283;52.504;13.358;2022-08-21T01:32:27;101180.56;;;18.45;100.00
41596;BME280;27283;52.504;13.358;2022-08-21T01:35:00;101169.25;;;18.41;100.00
41596;BME280;27283;52.504;13.358;2022-08-21T01:37:35;101172.38;;;18.32;100.00
41596;BME280;27283;52.504;13.358;2022-08-21T01:40:10;101173.44;;;18.44;100.00
41596;BME280;27283;52.504;13.358;2022-08-21T01:42:42;101180.75;;;18.30;100.00
41596;BME280;27283;52.504;13.358;2022-08-21T01:45:15;101190.63;;;18.71;100.00
41596;BME280;27283;52.504;13.358;2022-08-21T01:47:47;101185.59;;;18.35;100.00
41596;BME280;27283;52.504;13.358;2022-08-21T01:50:21;101184.50;;;18.16;100.00
41596;BME280;27283;52.504;13.358;2022-08-21T01:52:55;101180.97;;;18.29;100.00
41596;BME280;27283;52.504;13.358;2022-08-21T01:55:28;101186.56;;;18.07;100.00
41596;BME280;27283;52.504;13.358;2022-08-21T01:58:00;101180.94;;;18.15;100.00
41596;BME280;27283;52.504;13.358;2022-08-21T02:00:32;101184.06;;;18.12;100.00
41596;BME280;27283;52.504;13.358;2022-08-21T02:03:04;101194.00;;;18.47;98.00
41596;BME280;27283;52.504;13.358;2022-08-21T02:05:36;101188.91;;;18.17;98.97
41596;BME280;27283;52.504;13.358;2022-08-21T02:08:10;101180.09;;;18.15;98.78
41596;BME280;27283;52.504;13.358;2022-08-21T02:10:45;101183.03;;;18.20;97.56
41596;BME280;27283;52.504;13.358;2022-08-21T02:13:18;101190.28;;;17.99;98.13
41596;BME280;27283;52.504;13.358;2022-08-21T02:15:50;101177.34;;;18.01;97.70
41596;BME280;27283;52.504;13.358;2022-08-21T02:18:23;101184.66;;;17.94;98.27
41596;BME280;27283;52.504;13.358;2022-08-21T02:20:55;101184.03;;;17.92;97.99
41596;BME280;27283;52.504;13.358;2022-08-21T02:23:30;101195.31;;;17.96;97.37
41596;BME280;27283;52.504;13.358;2022-08-21T02:26:05;101183.38;;;17.90;96.50
41596;BME280;27283;52.504;13.358;2022-08-21T02:28:38;101178.38;;;18.00;96.35
41596;BME280;27283;52.504;13.358;2022-08-21T02:31:11;101184.44;;;17.89;98.29
41596;BME280;27283;52.504;13.358;2022-08-21T02:33:43;101180.13;;;17.73;99.10
41596;BME280;27283;52.504;13.358;2022-08-21T02:36:15;101184.09;;;17.70;99.87
41596;BME280;27283;52.504;13.358;2022-08-21T02:38:49;101178.44;;;17.72;99.92
41596;BME280;27283;52.504;13.358;2022-08-21T02:41:22;101194.47;;;17.53;100.00
41596;BME280;27283;52.504;13.358;2022-08-21T02:43:53;101189.47;;;17.57;100.00
41596;BME280;27283;52.504;13.358;2022-08-21T02:46:25;101180.97;;;17.74;100.00
41596;BME280;27283;52.504;13.358;2022-08-21T02:48:57;101181.81;;;17.74;100.00
41596;BME280;27283;52.504;13.358;2022-08-21T02:51:29;101183.53;;;17.82;99.69
41596;BME280;27283;52.504;13.358;2022-08-21T02:54:03;101180.81;;;17.40;100.00
41596;BME280;27283;52.504;13.358;2022-08-21T02:56:35;101181.69;;;17.47;100.00
41596;BME280;27283;52.504;13.358;2022-08-21T02:59:07;101182.50;;;17.41;100.00
41596;BME280;27283;52.504;13.358;2022-08-21T03:01:39;101183.19;;;17.50;100.00
41596;BME280;27283;52.504;13.358;2022-08-21T03:04:10;101186.31;;;17.47;100.00
41596;BME280;27283;52.504;13.358;2022-08-21T03:06:43;101188.94;;;17.33;100.00
41596;BME280;27283;52.504;13.358;2022-08-21T03:09:17;101187.69;;;17.36;100.00
41596;BME280;27283;52.504;13.358;2022-08-21T03:11:49;101187.34;;;17.46;100.00
41596;BME280;27283;52.504;13.358;2022-08-21T03:14:20;101181.28;;;17.50;99.50
41596;BME280;27283;52.504;13.358;2022-08-21T03:16:52;101178.22;;;17.25;100.00
41596;BME280;27283;52.504;13.358;2022-08-21T03:19:24;101181.25;;;17.44;98.58
41596;BME280;27283;52.504;13.358;2022-08-21T03:21:55;101170.75;;;17.41;97.87
41596;BME280;27283;52.504;13.358;2022-08-21T03:24:30;101172.94;;;17.17;100.00
41596;BME280;27283;52.504;13.358;2022-08-21T03:27:03;101177.78;;;17.22;98.76
41596;BME280;27283;52.504;13.358;2022-08-21T03:29:36;101181.19;;;17.30;99.87
41596;BME280;27283;52.504;13.358;2022-08-21T03:32:09;101182.38;;;17.21;99.14
41596;BME280;27283;52.504;13.358;2022-08-21T03:34:40;101185.88;;;17.15;98.38
41596;BME280;27283;52.504;13.358;2022-08-21T03:37:14;101184.50;;;16.97;99.32
41596;BME280;27283;52.504;13.358;2022-08-21T03:39:49;101179.72;;;16.99;98.49
41596;BME280;27283;52.504;13.358;2022-08-21T03:42:21;101176.78;;;17.01;98.26
41596;BME280;27283;52.504;13.358;2022-08-21T03:44:53;101178.00;;;16.92;97.93
41596;BME280;27283;52.504;13.358;2022-08-21T03:47:25;101180.50;;;16.93;98.30
41596;BME280;27283;52.504;13.358;2022-08-21T03:49:57;101182.41;;;16.93;97.99
41596;BME280;27283;52.504;13.358;2022-08-21T03:52:29;101181.31;;;16.87;97.72
41596;BME280;27283;52.504;13.358;2022-08-21T03:55:05;101177.56;;;16.88;96.69
41596;BME280;27283;52.504;13.358;2022-08-21T03:57:37;101184.84;;;16.88;96.73
41596;BME280;27283;52.504;13.358;2022-08-21T04:00:11;101181.22;;;16.80;97.37
41596;BME280;27283;52.504;13.358;2022-08-21T04:02:44;101191.44;;;17.00;96.11
41596;BME280;27283;52.504;13.358;2022-08-21T04:05:16;101188.97;;;16.83;96.47
41596;BME280;27283;52.504;13.358;2022-08-21T04:07:57;101194.47;;;16.90;96.50
41596;BME280;27283;52.504;13.358;2022-08-21T04:10:33;101192.69;;;16.76;96.84
41596;BME280;27283;52.504;13.358;2022-08-21T04:13:07;101201.44;;;16.99;95.87
41596;BME280;27283;52.504;13.358;2022-08-21T04:15:40;101201.84;;;16.96;95.68
41596;BME280;27283;52.504;13.358;2022-08-21T04:18:12;101199.72;;;16.70;96.56
41596;BME280;27283;52.504;13.358;2022-08-21T04:20:46;101201.69;;;16.83;95.74
41596;BME280;27283;52.504;13.358;2022-08-21T04:23:20;101205.19;;;16.77;96.40
41596;BME280;27283;52.504;13.358;2022-08-21T04:25:56;101196.16;;;16.70;96.27
41596;BME280;27283;52.504;13.358;2022-08-21T04:28:29;101200.03;;;17.04;94.01
41596;BME280;27283;52.504;13.358;2022-08-21T04:31:04;101198.69;;;16.93;94.05
41596;BME280;27283;52.504;13.358;2022-08-21T04:33:36;101199.25;;;16.66;94.81
41596;BME280;27283;52.504;13.358;2022-08-21T04:36:09;101192.69;;;16.76;95.17
41596;BME280;27283;52.504;13.358;2022-08-21T04:38:41;101199.47;;;16.87;93.96
41596;BME280;27283;52.504;13.358;2022-08-21T04:41:17;101207.53;;;16.80;93.66
41596;BME280;27283;52.504;13.358;2022-08-21T04:43:56;101201.41;;;16.93;93.04
41596;BME280;27283;52.504;13.358;2022-08-21T04:46:28;101205.97;;;17.21;91.52
41596;BME280;27283;52.504;13.358;2022-08-21T04:49:04;101201.34;;;16.64;93.36
41596;BME280;27283;52.504;13.358;2022-08-21T04:51:37;101205.28;;;16.83;92.72
41596;BME280;27283;52.504;13.358;2022-08-21T04:54:14;101208.50;;;16.94;91.88
41596;BME280;27283;52.504;13.358;2022-08-21T04:56:52;101203.75;;;17.03;91.84
41596;BME280;27283;52.504;13.358;2022-08-21T04:59:34;101212.16;;;16.86;92.68
41596;BME280;27283;52.504;13.358;2022-08-21T05:02:08;101202.56;;;16.62;94.49
41596;BME280;27283;52.504;13.358;2022-08-21T05:04:48;101200.88;;;16.82;92.76
41596;BME280;27283;52.504;13.358;2022-08-21T05:07:23;101199.13;;;16.75;93.31
41596;BME280;27283;52.504;13.358;2022-08-21T05:10:11;101209.66;;;16.84;93.46
41596;BME280;27283;52.504;13.358;2022-08-21T05:12:46;101208.97;;;16.97;92.37
41596;BME280;27283;52.504;13.358;2022-08-21T05:15:18;101212.75;;;16.81;93.23
41596;BME280;27283;52.504;13.358;2022-08-21T05:17:49;101210.50;;;16.85;92.48
41596;BME280;27283;52.504;13.358;2022-08-21T05:20:29;101205.97;;;16.71;92.92
41596;BME280;27283;52.504;13.358;2022-08-21T05:23:08;101204.38;;;16.76;92.90
41596;BME280;27283;52.504;13.358;2022-08-21T05:28:58;101212.47;;;16.91;92.52
41596;BME280;27283;52.504;13.358;2022-08-21T05:31:31;101218.53;;;16.72;92.79
41596;BME280;27283;52.504;13.358;2022-08-21T05:34:03;101219.94;;;16.68;92.44
41596;BME280;27283;52.504;13.358;2022-08-21T05:36:35;101222.75;;;16.74;92.18
41596;BME280;27283;52.504;13.358;2022-08-21T05:39:07;101225.75;;;16.86;91.61
41596;BME280;27283;52.504;13.358;2022-08-21T05:41:39;101226.28;;;16.75;92.17
41596;BME280;27283;52.504;13.358;2022-08-21T05:44:14;101230.53;;;16.84;90.73
41596;BME280;27283;52.504;13.358;2022-08-21T05:46:48;101230.81;;;16.89;90.13
41596;BME280;27283;52.504;13.358;2022-08-21T05:49:19;101232.75;;;17.24;90.00
41596;BME280;27283;52.504;13.358;2022-08-21T05:51:52;101238.66;;;16.99;90.62
41596;BME280;27283;52.504;13.358;2022-08-21T05:54:23;101235.28;;;16.97;90.17
41596;BME280;27283;52.504;13.358;2022-08-21T05:56:56;101238.38;;;16.94;90.71
41596;BME280;27283;52.504;13.358;2022-08-21T05:59:31;101244.34;;;17.39;89.57
41596;BME280;27283;52.504;13.358;2022-08-21T06:02:04;101242.59;;;17.25;89.09
41596;BME280;27283;52.504;13.358;2022-08-21T06:04:36;101244.13;;;17.34;88.76
41596;BME280;27283;52.504;13.358;2022-08-21T06:07:19;101241.38;;;17.27;88.90
41596;BME280;27283;52.504;13.358;2022-08-21T06:10:05;101246.31;;;17.45;87.74
41596;BME280;27283;52.504;13.358;2022-08-21T06:12:37;101240.72;;;17.60;87.87
41596;BME280;27283;52.504;13.358;2022-08-21T06:15:12;101244.03;;;17.49;86.82
41596;BME280;27283;52.504;13.358;2022-08-21T06:17:44;101244.50;;;17.59;88.77
41596;BME280;27283;52.504;13.358;2022-08-21T06:20:16;101243.63;;;17.52;88.11
41596;BME280;27283;52.504;13.358;2022-08-21T06:22:48;101239.94;;;17.66;87.22
41596;BME280;27283;52.504;13.358;2022-08-21T06:25:20;101241.31;;;17.56;86.89
41596;BME280;27283;52.504;13.358;2022-08-21T06:27:53;101239.19;;;17.86;87.10
41596;BME280;27283;52.504;13.358;2022-08-21T06:30:37;101234.53;;;18.21;86.83
41596;BME280;27283;52.504;13.358;2022-08-21T06:33:09;101240.03;;;17.86;84.08
41596;BME280;27283;52.504;13.358;2022-08-21T06:35:47;101248.81;;;17.82;85.31
41596;BME280;27283;52.504;13.358;2022-08-21T06:38:21;101248.50;;;17.98;84.09
41596;BME280;27283;52.504;13.358;2022-08-21T06:40:53;101243.97;;;17.77;85.57
41596;BME280;27283;52.504;13.358;2022-08-21T06:43:26;101245.78;;;17.98;84.55
41596;BME280;27283;52.504;13.358;2022-08-21T06:46:09;101253.78;;;18.13;83.76
41596;BME280;27283;52.504;13.358;2022-08-21T06:48:41;101250.66;;;17.81;84.01
41596;BME280;27283;52.504;13.358;2022-08-21T06:51:13;101251.88;;;17.72;84.63
41596;BME280;27283;52.504;13.358;2022-08-21T06:53:45;101246.50;;;17.85;84.55
41596;BME280;27283;52.504;13.358;2022-08-21T06:56:17;101245.44;;;18.28;82.64
41596;BME280;27283;52.504;13.358;2022-08-21T06:58:52;101236.22;;;18.22;82.72
41596;BME280;27283;52.504;13.358;2022-08-21T07:01:26;101245.22;;;18.16;82.06
41596;BME280;27283;52.504;13.358;2022-08-21T07:03:58;101243.78;;;18.27;82.88
41596;BME280;27283;52.504;13.358;2022-08-21T07:06:31;101237.53;;;18.40;81.35
41596;BME280;27283;52.504;13.358;2022-08-21T07:09:03;101237.16;;;18.63;79.93
41596;BME280;27283;52.504;13.358;2022-08-21T07:11:35;101243.06;;;19.00;79.16
41596;BME280;27283;52.504;13.358;2022-08-21T07:14:18;101240.72;;;19.30;76.61
41596;BME280;27283;52.504;13.358;2022-08-21T07:16:53;101236.69;;;19.53;74.65
41596;BME280;27283;52.504;13.358;2022-08-21T07:19:25;101239.47;;;19.33;75.77
41596;BME280;27283;52.504;13.358;2022-08-21T07:22:00;101241.66;;;19.96;73.43
41596;BME280;27283;52.504;13.358;2022-08-21T07:24:33;101242.03;;;20.00;74.16
41596;BME280;27283;52.504;13.358;2022-08-21T07:27:07;101237.13;;;20.15;72.66
41596;BME280;27283;52.504;13.358;2022-08-21T07:29:38;101241.31;;;19.66;72.60
41596;BME280;27283;52.504;13.358;2022-08-21T07:32:14;101238.41;;;19.47;72.71
41596;BME280;27283;52.504;13.358;2022-08-21T07:34:49;101232.47;;;19.71;71.51
41596;BME280;27283;52.504;13.358;2022-08-21T07:37:20;101237.28;;;19.89;71.52
41596;BME280;27283;52.504;13.358;2022-08-21T07:39:53;101218.16;;;19.89;70.24
41596;BME280;27283;52.504;13.358;2022-08-21T07:42:24;101222.00;;;20.51;71.28
41596;BME280;27283;52.504;13.358;2022-08-21T07:44:57;101223.44;;;20.93;64.19
41596;BME280;27283;52.504;13.358;2022-08-21T07:48:19;101232.00;;;20.96;63.53
41596;BME280;27283;52.504;13.358;2022-08-21T07:50:51;101226.59;;;20.89;64.28
41596;BME280;27283;52.504;13.358;2022-08-21T07:53:23;101231.59;;;21.18;64.01
41596;BME280;27283;52.504;13.358;2022-08-21T07:55:57;101231.41;;;20.94;62.97
41596;BME280;27283;52.504;13.358;2022-08-21T07:58:28;101228.44;;;20.96;62.67
41596;BME280;27283;52.504;13.358;2022-08-21T08:01:01;101226.03;;;20.81;62.63
41596;BME280;27283;52.504;13.358;2022-08-21T08:03:36;101230.88;;;21.04;62.09
41596;BME280;27283;52.504;13.358;2022-08-21T08:06:08;101230.72;;;20.74;63.99
41596;BME280;27283;52.504;13.358;2022-08-21T08:08:43;101226.19;;;21.73;61.21
41596;BME280;27283;52.504;13.358;2022-08-21T08:11:15;101229.09;;;21.60;62.48
41596;BME280;27283;52.504;13.358;2022-08-21T08:13:50;101227.22;;;20.92;60.50
41596;BME280;27283;52.504;13.358;2022-08-21T08:16:23;101228.09;;;20.53;62.09
41596;BME280;27283;52.504;13.358;2022-08-21T08:18:57;101222.00;;;21.09;60.90
41596;BME280;27283;52.504;13.358;2022-08-21T08:21:30;101224.13;;;20.81;59.93
41596;BME280;27283;52.504;13.358;2022-08-21T08:24:03;101226.81;;;21.57;57.09
41596;BME280;27283;52.504;13.358;2022-08-21T08:26:47;101221.53;;;22.41;55.48
41596;BME280;27283;52.504;13.358;2022-08-21T08:29:21;101221.63;;;21.86;55.66
41596;BME280;27283;52.504;13.358;2022-08-21T08:31:55;101234.00;;;22.68;54.13
41596;BME280;27283;52.504;13.358;2022-08-21T08:34:30;101230.81;;;22.40;54.44
41596;BME280;27283;52.504;13.358;2022-08-21T08:37:04;101235.22;;;22.83;52.22
41596;BME280;27283;52.504;13.358;2022-08-21T08:39:37;101234.97;;;22.73;50.72
41596;BME280;27283;52.504;13.358;2022-08-21T08:42:13;101237.59;;;22.68;50.15
41596;BME280;27283;52.504;13.358;2022-08-21T08:45:05;101234.94;;;21.82;52.31
41596;BME280;27283;52.504;13.358;2022-08-21T08:47:42;101226.88;;;22.78;51.22
41596;BME280;27283;52.504;13.358;2022-08-21T08:50:20;101234.16;;;22.12;52.61
41596;BME280;27283;52.504;13.358;2022-08-21T08:52:57;101239.81;;;21.80;52.94
41596;BME280;27283;52.504;13.358;2022-08-21T08:55:35;101225.34;;;21.91;52.42
41596;BME280;27283;52.504;13.358;2022-08-21T08:58:13;101219.88;;;21.91;51.81
41596;BME280;27283;52.504;13.358;2022-08-21T09:00:48;101221.28;;;22.31;52.93
41596;BME280;27283;52.504;13.358;2022-08-21T09:03:24;101211.53;;;22.35;53.67
41596;BME280;27283;52.504;13.358;2022-08-21T09:06:06;101214.88;;;21.70;53.15
41596;BME280;27283;52.504;13.358;2022-08-21T09:08:53;101223.84;;;21.58;53.09
41596;BME280;27283;52.504;13.358;2022-08-21T09:11:32;101212.59;;;22.16;51.76
41596;BME280;27283;52.504;13.358;2022-08-21T09:14:14;101209.69;;;21.99;51.68
41596;BME280;27283;52.504;13.358;2022-08-21T09:16:55;101216.88;;;22.42;52.04
41596;BME280;27283;52.504;13.358;2022-08-21T09:19:43;101217.34;;;22.39;51.48
41596;BME280;27283;52.504;13.358;2022-08-21T09:22:27;101220.22;;;21.83;52.22
41596;BME280;27283;52.504;13.358;2022-08-21T09:25:18;101221.53;;;22.11;52.35
41596;BME280;27283;52.504;13.358;2022-08-21T09:27:52;101217.84;;;21.68;52.94
41596;BME280;27283;52.504;13.358;2022-08-21T09:30:29;101221.75;;;21.35;52.21
41596;BME280;27283;52.504;13.358;2022-08-21T09:33:01;101225.91;;;21.63;52.02
41596;BME280;27283;52.504;13.358;2022-08-21T09:35:33;101224.25;;;21.62;52.42
41596;BME280;27283;52.504;13.358;2022-08-21T09:38:09;101218.59;;;21.57;52.60
41596;BME280;27283;52.504;13.358;2022-08-21T09:40:44;101216.78;;;21.69;53.25
41596;BME280;27283;52.504;13.358;2022-08-21T09:43:20;101218.19;;;21.35;52.69
41596;BME280;27283;52.504;13.358;2022-08-21T09:46:07;101212.44;;;21.62;51.54
41596;BME280;27283;52.504;13.358;2022-08-21T09:48:46;101205.41;;;21.29;53.92
41596;BME280;27283;52.504;13.358;2022-08-21T09:51:21;101211.84;;;21.59;51.73
41596;BME280;27283;52.504;13.358;2022-08-21T09:54:15;101205.66;;;21.83;51.36
41596;BME280;27283;52.504;13.358;2022-08-21T09:56:55;101213.66;;;22.33;51.47
41596;BME280;27283;52.504;13.358;2022-08-21T09:59:41;101219.44;;;23.33;48.75
41596;BME280;27283;52.504;13.358;2022-08-21T10:02:27;101213.72;;;22.57;49.39
41596;BME280;27283;52.504;13.358;2022-08-21T10:05:06;101215.56;;;22.33;49.81
41596;BME280;27283;52.504;13.358;2022-08-21T10:07:40;101212.66;;;22.27;50.94
41596;BME280;27283;52.504;13.358;2022-08-21T10:10:19;101213.13;;;22.24;50.30
41596;BME280;27283;52.504;13.358;2022-08-21T10:13:00;101215.94;;;22.18;47.02
41596;BME280;27283;52.504;13.358;2022-08-21T10:15:43;101221.16;;;21.89;48.01
41596;BME280;27283;52.504;13.358;2022-08-21T10:18:26;101213.91;;;22.13;47.82
41596;BME280;27283;52.504;13.358;2022-08-21T10:21:02;101209.75;;;22.10;47.58
41596;BME280;27283;52.504;13.358;2022-08-21T10:23:49;101217.63;;;22.19;47.66
41596;BME280;27283;52.504;13.358;2022-08-21T10:26:36;101217.91;;;22.29;48.56
41596;BME280;27283;52.504;13.358;2022-08-21T10:31:55;101211.75;;;23.59;45.87
41596;BME280;27283;52.504;13.358;2022-08-21T10:34:48;101213.47;;;23.36;45.18
41596;BME280;27283;52.504;13.358;2022-08-21T10:37:39;101218.13;;;23.24;44.02
41596;BME280;27283;52.504;13.358;2022-08-21T10:40:24;101218.59;;;23.21;43.57
41596;BME280;27283;52.504;13.358;2022-08-21T10:43:09;101208.03;;;23.88;46.23
41596;BME280;27283;52.504;13.358;2022-08-21T10:45:57;101209.66;;;23.37;45.44
41596;BME280;27283;52.504;13.358;2022-08-21T10:48:36;101207.00;;;23.42;45.77
41596;BME280;27283;52.504;13.358;2022-08-21T10:51:13;101212.25;;;23.44;44.95
41596;BME280;27283;52.504;13.358;2022-08-21T10:54:03;101217.66;;;23.91;43.30
41596;BME280;27283;52.504;13.358;2022-08-21T10:56:41;101207.22;;;24.34;44.04
41596;BME280;27283;52.504;13.358;2022-08-21T10:59:25;101212.28;;;23.96;41.98
41596;BME280;27283;52.504;13.358;2022-08-21T11:02:13;101214.75;;;24.10;41.80
41596;BME280;27283;52.504;13.358;2022-08-21T11:04:53;101203.25;;;24.41;41.68
41596;BME280;27283;52.504;13.358;2022-08-21T11:07:31;101203.75;;;24.55;39.52
41596;BME280;27283;52.504;13.358;2022-08-21T11:10:13;101204.22;;;24.81;39.13
41596;BME280;27283;52.504;13.358;2022-08-21T11:12:52;101201.94;;;25.51;38.83
41596;BME280;27283;52.504;13.358;2022-08-21T11:15:37;101206.59;;;25.11;39.18
41596;BME280;27283;52.504;13.358;2022-08-21T11:18:21;101205.94;;;25.04;36.73
41596;BME280;27283;52.504;13.358;2022-08-21T11:21:03;101197.09;;;24.68;35.85
41596;BME280;27283;52.504;13.358;2022-08-21T11:23:41;101211.31;;;25.72;34.09
41596;BME280;27283;52.504;13.358;2022-08-21T11:26:18;101199.09;;;24.73;34.86
41596;BME280;27283;52.504;13.358;2022-08-21T11:29:00;101195.91;;;24.47;37.78
41596;BME280;27283;52.504;13.358;2022-08-21T11:31:50;101195.47;;;25.40;34.89
41596;BME280;27283;52.504;13.358;2022-08-21T11:34:37;101199.25;;;25.17;35.81
41596;BME280;27283;52.504;13.358;2022-08-21T11:37:19;101200.78;;;25.08;34.93
41596;BME280;27283;52.504;13.358;2022-08-21T11:40:04;101198.59;;;25.10;35.76
41596;BME280;27283;52.504;13.358;2022-08-21T11:42:42;101195.19;;;24.52;37.60
41596;BME280;27283;52.504;13.358;2022-08-21T11:45:25;101191.31;;;24.53;37.36
41596;BME280;27283;52.504;13.358;2022-08-21T11:48:14;101189.88;;;24.62;36.55
41596;BME280;27283;52.504;13.358;2022-08-21T11:50:48;101200.69;;;25.03;37.22
41596;BME280;27283;52.504;13.358;2022-08-21T11:53:33;101181.78;;;24.89;36.12
41596;BME280;27283;52.504;13.358;2022-08-21T11:56:11;101184.41;;;25.35;36.33
41596;BME280;27283;52.504;13.358;2022-08-21T11:58:50;101186.00;;;24.46;36.59
41596;BME280;27283;52.504;13.358;2022-08-21T12:01:45;101188.94;;;24.90;36.69
41596;BME280;27283;52.504;13.358;2022-08-21T12:04:26;101194.44;;;25.07;37.53
41596;BME280;27283;52.504;13.358;2022-08-21T12:07:12;101184.72;;;23.91;36.94
41596;BME280;27283;52.504;13.358;2022-08-21T12:09:53;101184.31;;;24.28;36.73
41596;BME280;27283;52.504;13.358;2022-08-21T12:12:28;101178.75;;;24.40;38.25
41596;BME280;27283;52.504;13.358;2022-08-21T12:15:23;101177.97;;;24.73;37.15
41596;BME280;27283;52.504;13.358;2022-08-21T12:17:59;101179.41;;;24.47;36.99
41596;BME280;27283;52.504;13.358;2022-08-21T12:20:44;101180.72;;;23.99;38.58
41596;BME280;27283;52.504;13.358;2022-08-21T12:23:25;101170.66;;;24.33;37.40
41596;BME280;27283;52.504;13.358;2022-08-21T12:26:23;101174.50;;;24.32;37.02
41596;BME280;27283;52.504;13.358;2022-08-21T12:29:11;101174.66;;;24.42;36.30
41596;BME280;27283;52.504;13.358;2022-08-21T12:32:01;101175.75;;;24.41;36.08
41596;BME280;27283;52.504;13.358;2022-08-21T12:34:42;101172.31;;;24.17;36.93
41596;BME280;27283;52.504;13.358;2022-08-21T12:37:27;101177.19;;;24.95;36.76
41596;BME280;27283;52.504;13.358;2022-08-21T12:40:04;101171.16;;;24.76;37.07
41596;BME280;27283;52.504;13.358;2022-08-21T12:42:51;101174.38;;;24.90;35.34
41596;BME280;27283;52.504;13.358;2022-08-21T12:45:30;101171.75;;;25.17;34.94
41596;BME280;27283;52.504;13.358;2022-08-21T12:48:10;101163.34;;;25.46;35.44
41596;BME280;27283;52.504;13.358;2022-08-21T12:50:50;101169.59;;;24.51;37.32
41596;BME280;27283;52.504;13.358;2022-08-21T12:53:33;101176.78;;;24.06;38.25
41596;BME280;27283;52.504;13.358;2022-08-21T12:56:11;101168.63;;;23.71;37.98
41596;BME280;27283;52.504;13.358;2022-08-21T12:58:46;101162.22;;;24.23;38.15
41596;BME280;27283;52.504;13.358;2022-08-21T13:01:27;101161.50;;;23.58;40.30
41596;BME280;27283;52.504;13.358;2022-08-21T13:04:10;101153.31;;;24.16;38.69
41596;BME280;27283;52.504;13.358;2022-08-21T13:06:47;101157.97;;;24.15;39.86
41596;BME280;27283;52.504;13.358;2022-08-21T13:09:27;101168.91;;;24.27;39.62
41596;BME280;27283;52.504;13.358;2022-08-21T13:12:10;101166.19;;;23.98;39.77
41596;BME280;27283;52.504;13.358;2022-08-21T13:14:44;101163.59;;;23.80;39.62
41596;BME280;27283;52.504;13.358;2022-08-21T13:17:21;101156.91;;;24.50;39.75
41596;BME280;27283;52.504;13.358;2022-08-21T13:19:56;101152.09;;;24.40;39.60
41596;BME280;27283;52.504;13.358;2022-08-21T13:22:32;101155.72;;;24.12;39.07
41596;BME280;27283;52.504;13.358;2022-08-21T13:25:13;101150.34;;;23.88;39.52
41596;BME280;27283;52.504;13.358;2022-08-21T13:27:58;101155.72;;;24.75;39.26
41596;BME280;27283;52.504;13.358;2022-08-21T13:30:31;101142.84;;;24.30;39.07
41596;BME280;27283;52.504;13.358;2022-08-21T13:33:06;101153.22;;;24.73;39.25